createdAt,value
2024-02-22T00:01:55.810Z,5.98
2024-02-22T00:06:57.450Z,6.02
2024-02-22T00:11:58.311Z,5.99
2024-02-22T00:16:59.376Z,6.05
2024-02-22T00:22:00.229Z,6.07
2024-02-22T00:27:01.390Z,6.12
2024-02-22T00:32:02.246Z,6.18
2024-02-22T00:37:03.276Z,6.14
2024-02-22T00:42:05.982Z,6.15
2024-02-22T00:47:06.969Z,6.15
2024-02-22T00:52:09.212Z,6.16
2024-02-22T00:57:10.756Z,6.22
2024-02-22T01:02:11.609Z,6.22
2024-02-22T01:07:12.502Z,6.24
2024-02-22T01:12:13.419Z,6.34
2024-02-22T01:17:14.644Z,6.33
2024-02-22T01:22:15.813Z,6.39
2024-02-22T01:27:16.993Z,6.36
2024-02-22T01:32:17.807Z,6.37
2024-02-22T01:37:18.740Z,6.43
2024-02-22T01:42:19.555Z,6.37
2024-02-22T01:47:20.852Z,6.41
2024-02-22T01:52:22.256Z,6.43
2024-02-22T01:57:23.323Z,6.50
2024-02-22T02:02:24.638Z,6.46
2024-02-22T02:07:26.486Z,6.52
2024-02-22T02:12:27.271Z,6.47
2024-02-22T02:17:28.759Z,6.55
2024-02-22T02:22:51.080Z,6.59
2024-02-22T02:27:52.901Z,6.59
2024-02-22T02:32:53.881Z,6.60
2024-02-22T02:37:58.315Z,6.56
2024-02-22T02:42:59.138Z,6.58
2024-02-22T02:48:00.216Z,6.59
2024-02-22T02:53:01.167Z,6.63
2024-02-22T02:58:03.019Z,6.62
2024-02-22T03:03:03.809Z,6.67
2024-02-22T03:08:05.580Z,6.67
2024-02-22T03:13:11.725Z,6.68
2024-02-22T03:18:13.484Z,6.67
2024-02-22T03:23:14.444Z,6.71
2024-02-22T03:28:16.570Z,6.71
2024-02-22T03:33:17.488Z,6.73
2024-02-22T03:38:19.758Z,6.71
2024-02-22T03:43:20.880Z,6.68
2024-02-22T03:48:22.295Z,6.68
2024-02-22T03:53:23.161Z,6.74
2024-02-22T03:58:24.008Z,6.73
2024-02-22T04:03:25.919Z,6.76
2024-02-22T04:08:26.728Z,6.77
2024-02-22T04:13:27.630Z,6.77
2024-02-22T04:18:28.652Z,6.78
2024-02-22T04:23:29.553Z,6.77
2024-02-22T04:28:30.353Z,6.72
2024-02-22T04:33:33.016Z,6.75
2024-02-22T04:38:33.898Z,6.76
2024-02-22T04:43:34.993Z,6.81
2024-02-22T04:48:36.033Z,6.80
2024-02-22T04:53:36.938Z,6.80
2024-02-22T04:58:38.209Z,6.80
2024-02-22T05:03:40.088Z,6.84
2024-02-22T05:08:40.926Z,6.88
2024-02-22T05:13:42.994Z,6.85
2024-02-22T05:18:44.129Z,6.91
2024-02-22T05:23:44.983Z,6.89
2024-02-22T05:28:45.837Z,6.90
2024-02-22T05:33:46.739Z,6.90
2024-02-22T05:38:48.378Z,6.87
2024-02-22T05:43:49.206Z,6.86
2024-02-22T05:48:50.443Z,6.87
2024-02-22T05:53:52.320Z,6.84
2024-02-22T05:58:53.189Z,6.91
2024-02-22T06:03:54.045Z,6.93
2024-02-22T06:08:54.912Z,6.88
2024-02-22T06:13:55.792Z,6.91
2024-02-22T06:18:56.839Z,6.96
2024-02-22T06:23:57.966Z,6.97
2024-02-22T06:28:58.872Z,7.02
2024-02-22T06:34:01.034Z,7.00
2024-02-22T06:39:01.858Z,6.97
2024-02-22T06:44:02.783Z,7.01
2024-02-22T06:49:04.637Z,7.08
2024-02-22T06:54:06.104Z,7.00
2024-02-22T06:59:07.233Z,7.01
2024-02-22T07:04:10.311Z,7.00
2024-02-22T07:09:12.217Z,6.98
2024-02-22T07:14:13.200Z,7.04
2024-02-22T07:19:14.441Z,7.04
2024-02-22T07:24:17.258Z,7.04
2024-02-22T07:29:18.374Z,7.08
2024-02-22T07:34:20.381Z,7.09
2024-02-22T07:39:21.379Z,7.08
2024-02-22T07:44:22.367Z,7.16
2024-02-22T07:49:23.341Z,7.21
2024-02-22T07:54:24.776Z,7.21
2024-02-22T07:59:26.008Z,7.29
2024-02-22T08:04:27.322Z,7.30
2024-02-22T08:09:28.171Z,7.27
2024-02-22T08:14:28.977Z,7.34
2024-02-22T08:19:30.166Z,7.44
2024-02-22T08:24:31.036Z,7.35
2024-02-22T08:29:31.869Z,7.41
2024-02-22T08:34:33.092Z,7.40
2024-02-22T08:39:34.362Z,7.41
2024-02-22T08:44:35.229Z,7.49
2024-02-22T08:49:36.420Z,7.47
2024-02-22T08:54:38.811Z,7.51
2024-02-22T08:59:39.630Z,7.52
2024-02-22T09:04:40.529Z,7.55
2024-02-22T09:09:41.403Z,7.58
2024-02-22T09:14:42.252Z,7.73
2024-02-22T09:19:43.216Z,7.70
2024-02-22T09:24:46.156Z,7.72
2024-02-22T09:29:46.956Z,7.77
2024-02-22T09:34:48.223Z,7.81
2024-02-22T09:39:51.232Z,7.92
2024-02-22T09:44:52.146Z,8.00
2024-02-22T09:49:54.516Z,8.01
2024-02-22T09:54:55.363Z,8.07
2024-02-22T09:59:56.270Z,8.10
2024-02-22T10:04:57.871Z,8.14
2024-02-22T10:09:59.015Z,8.18
2024-02-22T10:15:00.278Z,8.23
2024-02-22T10:20:10.152Z,8.23
2024-02-22T10:25:14.502Z,8.30
2024-02-22T10:30:17.926Z,8.34
2024-02-22T10:35:19.777Z,8.44
2024-02-22T10:40:21.113Z,8.49
2024-02-22T10:45:22.020Z,8.50
2024-02-22T10:50:31.640Z,8.54
2024-02-22T10:55:35.055Z,8.61
2024-02-22T11:00:36.326Z,8.71
2024-02-22T11:05:40.249Z,8.79
2024-02-22T11:10:44.071Z,8.82
2024-02-22T11:15:44.925Z,8.81
2024-02-22T11:20:45.955Z,8.77
2024-02-22T11:25:46.756Z,8.81
2024-02-22T11:30:48.565Z,8.80
2024-02-22T11:35:54.541Z,8.85
2024-02-22T11:41:03.535Z,8.80
2024-02-22T11:46:06.896Z,8.81
2024-02-22T11:51:08.072Z,8.78
2024-02-22T11:56:08.861Z,8.76
2024-02-22T12:01:10.269Z,8.81
2024-02-22T12:06:14.588Z,8.77
2024-02-22T12:11:15.830Z,8.75
2024-02-22T12:16:19.277Z,8.70
2024-02-22T12:21:27.061Z,8.70
2024-02-22T12:26:28.187Z,8.72
2024-02-22T12:31:29.162Z,8.67
2024-02-22T12:36:29.973Z,8.60
2024-02-22T12:41:30.846Z,8.60
2024-02-22T12:46:33.710Z,8.49
2024-02-22T12:51:34.760Z,8.48
2024-02-22T12:56:35.802Z,8.46
2024-02-22T13:01:39.398Z,8.44
2024-02-22T13:06:40.733Z,8.39
2024-02-22T13:11:41.718Z,8.38
2024-02-22T13:16:42.842Z,8.39
2024-02-22T13:21:44.184Z,8.43
2024-02-22T13:26:45.002Z,8.51
2024-02-22T13:31:45.869Z,8.50
2024-02-22T13:36:46.716Z,8.59
2024-02-22T13:41:47.562Z,8.54
2024-02-22T13:46:49.613Z,8.52
2024-02-22T13:51:53.888Z,8.60
2024-02-22T13:56:56.826Z,8.63
2024-02-22T14:01:58.226Z,8.61
2024-02-22T14:07:01.064Z,8.52
2024-02-22T14:12:03.133Z,8.52
2024-02-22T14:17:04.200Z,8.52
2024-02-22T14:22:05.380Z,8.51
2024-02-22T14:27:13.506Z,8.46
2024-02-22T14:32:15.420Z,8.50
2024-02-22T14:37:16.252Z,8.46
2024-02-22T14:42:18.429Z,8.45
2024-02-22T14:47:19.360Z,8.41
2024-02-22T14:52:21.476Z,8.41
2024-02-22T14:57:23.480Z,8.34
2024-02-22T15:02:25.287Z,8.33
2024-02-22T15:07:28.073Z,8.32
2024-02-22T15:12:29.210Z,8.27
2024-02-22T15:17:30.870Z,8.24
2024-02-22T15:22:32.573Z,8.25
2024-02-22T15:27:37.974Z,8.27
2024-02-22T15:32:39.657Z,8.26
2024-02-22T15:37:40.695Z,8.27
2024-02-22T15:42:41.751Z,8.28
2024-02-22T15:47:42.628Z,8.26
2024-02-22T15:52:43.852Z,8.29
2024-02-22T15:57:44.690Z,8.29
2024-02-22T16:02:45.604Z,8.34
2024-02-22T16:07:47.150Z,8.42
2024-02-22T16:12:48.130Z,8.48
2024-02-22T16:17:48.914Z,8.45
2024-02-22T16:22:50.196Z,8.48
2024-02-22T16:27:50.966Z,8.46
2024-02-22T16:32:51.944Z,8.46
2024-02-22T16:37:54.016Z,8.56
2024-02-22T16:42:55.223Z,8.54
2024-02-22T16:47:56.085Z,8.52
2024-02-22T16:52:57.131Z,8.53
2024-02-22T16:57:58.008Z,8.51
2024-02-22T17:02:58.832Z,8.51
2024-02-22T17:07:59.730Z,8.51
2024-02-22T17:13:00.598Z,8.54
2024-02-22T17:18:03.782Z,8.50
2024-02-22T17:23:04.821Z,8.59
2024-02-22T17:28:07.776Z,8.64
2024-02-22T17:33:08.624Z,8.67
2024-02-22T17:38:10.220Z,8.65
2024-02-22T17:43:12.716Z,8.72
2024-02-22T17:48:15.196Z,8.73
2024-02-22T17:53:16.983Z,8.72
2024-02-22T17:58:17.873Z,8.79
2024-02-22T18:03:18.975Z,8.76
2024-02-22T18:08:19.913Z,8.67
2024-02-22T18:13:20.794Z,8.65
2024-02-22T18:18:22.538Z,8.73
2024-02-22T18:23:23.818Z,8.79
2024-02-22T18:28:25.113Z,8.73
2024-02-22T18:33:27.542Z,8.64
2024-02-22T18:38:31.069Z,8.49
2024-02-22T18:43:32.325Z,8.47
2024-02-22T18:48:33.206Z,8.55
2024-02-22T18:53:35.490Z,8.54
2024-02-22T18:58:36.687Z,8.53
2024-02-22T19:03:37.614Z,8.58
2024-02-22T19:08:38.473Z,8.57
2024-02-22T19:13:42.678Z,8.70
2024-02-22T19:18:43.665Z,8.65
2024-02-22T19:23:44.722Z,8.62
2024-02-22T19:28:45.616Z,8.66
2024-02-22T19:33:48.033Z,8.73
2024-02-22T19:38:48.834Z,8.68
2024-02-22T19:43:51.864Z,8.64
2024-02-22T19:48:53.222Z,8.59
2024-02-22T19:53:54.201Z,8.53
2024-02-22T19:58:59.538Z,8.48
2024-02-22T20:04:00.560Z,8.10
2024-02-22T20:09:01.539Z,7.58
2024-02-22T20:14:05.620Z,7.34
2024-02-22T20:19:08.197Z,7.16
2024-02-22T20:24:09.070Z,6.92
2024-02-22T20:29:10.505Z,6.80
2024-02-22T20:34:11.317Z,6.68
2024-02-22T20:39:12.316Z,6.56
2024-02-22T20:44:13.160Z,6.39
2024-02-22T20:49:14.623Z,6.41
2024-02-22T20:54:15.523Z,6.34
2024-02-22T20:59:17.494Z,6.28
2024-02-22T21:04:19.607Z,6.24
2024-02-22T21:09:21.140Z,6.13
2024-02-22T21:14:24.114Z,6.08
2024-02-22T21:19:24.965Z,6.01
2024-02-22T21:24:26.045Z,6.01
2024-02-22T21:29:26.964Z,5.97
2024-02-22T21:34:27.925Z,5.95
2024-02-22T21:39:29.861Z,5.92
2024-02-22T21:44:32.452Z,5.88
2024-02-22T21:49:33.488Z,5.81
2024-02-22T21:54:34.723Z,5.81
2024-02-22T21:59:36.572Z,5.68
2024-02-22T22:04:37.385Z,5.66
2024-02-22T22:09:38.235Z,5.58
2024-02-22T22:14:39.035Z,5.55
2024-02-22T22:19:39.898Z,5.51
2024-02-22T22:24:40.931Z,5.43
2024-02-22T22:29:41.961Z,5.36
2024-02-22T22:34:42.804Z,5.30
2024-02-22T22:39:43.677Z,5.21
2024-02-22T22:44:44.592Z,5.14
2024-02-22T22:49:45.572Z,5.14
2024-02-22T22:54:46.612Z,5.08
2024-02-22T22:59:48.329Z,5.11
2024-02-22T23:04:52.530Z,5.02
2024-02-22T23:09:53.358Z,4.93
2024-02-22T23:14:54.883Z,4.74
2024-02-22T23:19:55.714Z,4.48
2024-02-22T23:25:00.322Z,4.35
2024-02-22T23:30:01.290Z,4.33
2024-02-22T23:35:02.224Z,4.30
2024-02-22T23:40:04.023Z,4.36
2024-02-22T23:45:05.494Z,4.34
2024-02-22T23:50:07.533Z,4.40
2024-02-22T23:55:08.669Z,4.35
